createdAt,value
2017-09-23T00:00:15.082Z,4.93
2017-09-23T00:02:41.423Z,6.10
2017-09-23T00:05:07.705Z,6.13
2017-09-23T00:07:33.993Z,5.80
2017-09-23T00:10:00.274Z,5.30
2017-09-23T00:12:27.306Z,5.73
2017-09-23T00:14:53.565Z,7.23
2017-09-23T00:17:20.602Z,5.83
2017-09-23T00:19:47.617Z,6.17
2017-09-23T00:22:13.962Z,5.60
2017-09-23T00:24:40.260Z,5.50
2017-09-23T00:27:06.561Z,5.70
2017-09-23T00:29:32.841Z,6.23
2017-09-23T00:31:59.909Z,6.77
2017-09-23T00:34:26.942Z,7.60
2017-09-23T00:36:53.983Z,6.40
2017-09-23T00:39:21.034Z,5.83
2017-09-23T00:41:47.341Z,6.00
2017-09-23T00:44:13.663Z,6.37
2017-09-23T00:46:39.952Z,6.17
2017-09-23T00:49:06.270Z,7.10
2017-09-23T00:51:33.304Z,6.10
2017-09-23T00:54:00.376Z,6.50
2017-09-23T00:56:26.691Z,6.23
2017-09-23T00:58:53.769Z,5.50
2017-09-23T01:01:20.041Z,4.97
2017-09-23T01:03:46.376Z,6.60
2017-09-23T01:06:13.697Z,5.03
2017-09-23T01:08:39.998Z,6.10
2017-09-23T01:11:06.314Z,5.93
2017-09-23T01:13:33.343Z,5.70
2017-09-23T01:15:59.661Z,5.23
2017-09-23T01:18:25.936Z,5.83
2017-09-23T01:20:52.589Z,5.47
2017-09-23T01:23:19.705Z,5.60
2017-09-23T01:25:46.760Z,5.40
2017-09-23T01:28:13.067Z,5.73
2017-09-23T01:30:40.148Z,7.50
2017-09-23T01:33:06.445Z,8.03
2017-09-23T01:35:32.739Z,6.83
2017-09-23T01:37:59.018Z,5.90
2017-09-23T01:40:26.075Z,5.93
2017-09-23T01:42:53.136Z,5.10
2017-09-23T01:45:19.438Z,5.53
2017-09-23T01:47:46.492Z,6.50
2017-09-23T01:50:13.523Z,6.93
2017-09-23T01:52:39.813Z,6.97
2017-09-23T01:55:06.107Z,5.73
2017-09-23T01:57:33.863Z,5.43
2017-09-23T02:00:00.224Z,5.60
2017-09-23T02:02:26.553Z,6.33
2017-09-23T02:04:52.888Z,7.03
2017-09-23T02:07:19.183Z,6.80
2017-09-23T02:09:45.487Z,7.30
2017-09-23T02:12:11.782Z,8.60
2017-09-23T02:14:38.084Z,8.57
2017-09-23T02:17:04.355Z,11.00
2017-09-23T02:19:30.655Z,8.10
2017-09-23T02:21:56.930Z,9.10
2017-09-23T02:24:23.227Z,8.07
2017-09-23T02:26:49.511Z,8.40
2017-09-23T02:29:16.542Z,7.53
2017-09-23T02:31:42.846Z,7.50
2017-09-23T02:34:09.135Z,6.37
2017-09-23T02:36:35.418Z,8.17
2017-09-23T02:39:01.708Z,8.10
2017-09-23T02:41:28.000Z,8.00
2017-09-23T02:43:55.547Z,7.63
2017-09-23T02:46:21.839Z,7.60
2017-09-23T02:48:48.145Z,8.13
2017-09-23T02:51:14.757Z,8.07
2017-09-23T02:53:41.806Z,8.07
2017-09-23T02:56:08.869Z,7.97
2017-09-23T02:58:35.159Z,7.60
2017-09-23T03:01:01.439Z,7.97
2017-09-23T03:03:27.737Z,7.50
2017-09-23T03:05:54.775Z,8.90
2017-09-23T03:08:21.814Z,7.43
2017-09-23T03:10:48.135Z,8.50
2017-09-23T03:13:14.418Z,8.60
2017-09-23T03:15:40.704Z,8.40
2017-09-23T03:18:06.972Z,7.80
2017-09-23T03:20:33.994Z,8.47
2017-09-23T03:23:01.021Z,8.50
2017-09-23T03:25:27.322Z,7.30
2017-09-23T03:27:53.602Z,8.50
2017-09-23T03:30:20.627Z,10.30
2017-09-23T03:32:46.931Z,13.27
2017-09-23T03:35:13.228Z,11.40
2017-09-23T03:37:40.265Z,12.50
2017-09-23T03:40:07.330Z,12.10
2017-09-23T03:42:33.651Z,10.30
2017-09-23T03:44:59.942Z,11.23
2017-09-23T03:47:26.218Z,9.60
2017-09-23T03:49:52.505Z,9.77
2017-09-23T03:52:20.277Z,9.80
2017-09-23T03:54:48.042Z,10.83
2017-09-23T03:57:14.336Z,10.90
2017-09-23T03:59:40.619Z,9.50
2017-09-23T04:02:06.938Z,9.87
2017-09-23T04:04:33.994Z,10.37
2017-09-23T04:07:00.324Z,8.20
2017-09-23T04:09:27.338Z,8.77
2017-09-23T04:11:53.611Z,8.63
2017-09-23T04:14:19.901Z,9.10
2017-09-23T04:16:47.769Z,8.97
2017-09-23T04:19:14.052Z,7.67
2017-09-23T04:21:40.316Z,8.77
2017-09-23T04:24:06.649Z,9.03
2017-09-23T04:26:32.938Z,7.97
2017-09-23T04:28:59.218Z,8.30
2017-09-23T04:31:25.498Z,8.30
2017-09-23T04:33:51.787Z,9.40
2017-09-23T04:36:19.773Z,9.27
2017-09-23T04:38:46.874Z,9.70
2017-09-23T04:41:13.161Z,9.27
2017-09-23T04:43:39.475Z,9.13
2017-09-23T04:46:06.488Z,9.20
2017-09-23T04:48:32.773Z,7.90
2017-09-23T04:50:59.054Z,8.07
2017-09-23T04:53:26.125Z,8.47
2017-09-23T04:55:52.458Z,8.80
2017-09-23T04:58:18.865Z,8.97
2017-09-23T05:00:45.458Z,7.80
2017-09-23T05:03:11.795Z,8.00
2017-09-23T05:05:38.081Z,7.73
2017-09-23T05:08:04.349Z,7.80
2017-09-23T05:10:30.659Z,7.70
2017-09-23T05:12:56.967Z,7.43
2017-09-23T05:15:23.287Z,7.57
2017-09-23T05:17:50.235Z,7.47
2017-09-23T05:20:18.136Z,7.80
2017-09-23T05:22:44.429Z,6.97
2017-09-23T05:25:11.466Z,7.10
2017-09-23T05:27:37.756Z,8.87
2017-09-23T05:30:04.067Z,8.23
2017-09-23T05:32:30.373Z,8.57
2017-09-23T05:34:57.424Z,7.80
2017-09-23T05:37:24.475Z,8.77
2017-09-23T05:39:51.554Z,8.10
2017-09-23T05:42:17.840Z,8.70
2017-09-23T05:44:44.125Z,8.57
2017-09-23T05:47:10.448Z,9.50
2017-09-23T05:49:36.736Z,10.10
2017-09-23T05:52:03.800Z,10.87
2017-09-23T05:54:30.094Z,10.47
2017-09-23T05:56:56.421Z,12.53
2017-09-23T05:59:22.729Z,14.00
2017-09-23T06:01:49.034Z,14.00
2017-09-23T06:04:15.330Z,13.10
2017-09-23T06:06:42.387Z,13.10
2017-09-23T06:09:09.426Z,12.60
2017-09-23T06:11:36.480Z,13.43
2017-09-23T06:14:03.539Z,14.37
2017-09-23T06:16:29.869Z,15.80
2017-09-23T06:18:56.188Z,18.40
2017-09-23T06:21:23.276Z,17.27
2017-09-23T06:23:49.550Z,14.47
2017-09-23T06:26:16.642Z,16.80
2017-09-23T06:28:42.939Z,18.83
2017-09-23T06:31:09.985Z,17.27
2017-09-23T06:33:37.043Z,17.17
2017-09-23T06:36:04.138Z,17.87
2017-09-23T06:38:30.477Z,15.03
2017-09-23T06:40:56.778Z,19.27
2017-09-23T06:43:23.129Z,19.10
2017-09-23T06:45:49.421Z,15.70
2017-09-23T06:48:15.757Z,16.27
2017-09-23T06:50:42.040Z,15.60
2017-09-23T06:53:08.341Z,15.50
2017-09-23T06:55:34.652Z,14.80
2017-09-23T06:58:00.978Z,15.07
2017-09-23T07:00:27.423Z,16.13
2017-09-23T07:02:53.767Z,16.20
2017-09-23T07:05:20.110Z,16.67
2017-09-23T07:07:46.415Z,15.60
2017-09-23T07:10:12.768Z,17.60
2017-09-23T07:12:39.093Z,17.90
2017-09-23T07:15:06.230Z,17.63
2017-09-23T07:17:33.420Z,17.13
2017-09-23T07:19:59.750Z,17.33
2017-09-23T07:22:26.035Z,17.50
2017-09-23T07:24:52.357Z,19.10
2017-09-23T07:27:18.653Z,18.07
2017-09-23T07:29:45.681Z,19.73
2017-09-23T07:34:46.555Z,22.57
2017-09-23T07:37:12.885Z,21.43
2017-09-23T07:39:39.975Z,22.30
2017-09-23T07:42:06.304Z,22.40
2017-09-23T07:44:32.693Z,24.33
2017-09-23T07:46:59.759Z,22.70
2017-09-23T07:49:26.050Z,22.80
2017-09-23T07:51:52.350Z,22.40
2017-09-23T07:54:18.643Z,22.00
2017-09-23T07:56:45.093Z,20.90
2017-09-23T07:59:11.413Z,21.47
2017-09-23T08:01:37.714Z,21.57
2017-09-23T08:04:04.003Z,22.20
2017-09-23T08:06:30.300Z,19.80
2017-09-23T08:08:57.502Z,19.97
2017-09-23T08:11:23.827Z,20.60
2017-09-23T08:13:50.150Z,19.80
2017-09-23T08:16:16.478Z,21.67
2017-09-23T08:18:42.803Z,20.10
2017-09-23T08:21:09.128Z,18.93
2017-09-23T08:23:36.388Z,19.03
2017-09-23T08:26:02.659Z,18.80
2017-09-23T08:28:29.697Z,17.57
2017-09-23T08:30:55.976Z,19.17
2017-09-23T08:33:22.307Z,18.77
2017-09-23T08:35:48.604Z,18.20
2017-09-23T08:38:14.933Z,19.53
2017-09-23T08:40:41.974Z,18.03
2017-09-23T08:43:08.320Z,19.53
2017-09-23T08:45:34.656Z,17.07
2017-09-23T08:48:00.954Z,18.93
2017-09-23T08:50:28.027Z,19.20
2017-09-23T08:52:55.069Z,17.30
2017-09-23T08:55:21.501Z,19.63
2017-09-23T08:57:48.525Z,17.60
2017-09-23T09:00:15.582Z,18.70
2017-09-23T09:02:41.887Z,19.00
2017-09-23T09:05:08.231Z,19.73
2017-09-23T09:07:35.265Z,19.10
2017-09-23T09:10:01.597Z,18.93
2017-09-23T09:12:27.913Z,19.10
2017-09-23T09:14:54.222Z,17.83
2017-09-23T09:17:21.314Z,19.03
2017-09-23T09:19:48.379Z,19.07
2017-09-23T09:22:15.429Z,17.17
2017-09-23T09:24:42.492Z,20.13
2017-09-23T09:27:08.796Z,17.23
2017-09-23T09:29:35.870Z,17.30
2017-09-23T09:32:02.193Z,19.37
2017-09-23T09:34:28.540Z,17.70
2017-09-23T09:36:54.833Z,21.70
2017-09-23T09:39:21.918Z,17.20
2017-09-23T09:41:48.287Z,12.40
2017-09-23T09:44:14.671Z,13.63
2017-09-23T09:46:41.002Z,11.40
2017-09-23T09:49:07.290Z,11.90
2017-09-23T09:51:33.611Z,10.90
2017-09-23T09:54:00.008Z,7.20
2017-09-23T09:56:27.848Z,9.03
2017-09-23T09:58:54.175Z,9.23
2017-09-23T10:01:21.219Z,8.33
2017-09-23T10:03:48.614Z,8.10
2017-09-23T10:06:15.713Z,8.03
2017-09-23T10:08:42.745Z,6.57
2017-09-23T10:11:10.539Z,7.37
2017-09-23T10:13:37.739Z,4.57
2017-09-23T10:16:04.047Z,6.80
2017-09-23T10:18:30.349Z,6.37
2017-09-23T10:20:56.659Z,6.17
2017-09-23T10:23:23.746Z,5.80
2017-09-23T10:25:50.085Z,5.90
2017-09-23T10:28:18.151Z,5.77
2017-09-23T10:30:44.466Z,5.60
2017-09-23T10:33:10.768Z,5.60
2017-09-23T10:35:37.838Z,5.90
2017-09-23T10:38:04.864Z,5.70
2017-09-23T10:40:31.930Z,6.33
2017-09-23T10:42:58.233Z,5.83
2017-09-23T10:45:24.965Z,5.90
2017-09-23T10:47:52.069Z,5.90
2017-09-23T10:50:18.380Z,5.30
2017-09-23T10:52:44.689Z,5.03
2017-09-23T10:55:11.018Z,5.30
2017-09-23T10:57:38.084Z,5.07
2017-09-23T11:00:04.434Z,4.57
2017-09-23T11:02:30.741Z,5.10
2017-09-23T11:04:57.082Z,4.27
2017-09-23T11:07:23.407Z,4.57
2017-09-23T11:09:49.727Z,4.23
2017-09-23T11:12:16.842Z,4.87
2017-09-23T11:14:43.126Z,3.40
2017-09-23T11:17:10.166Z,3.80
2017-09-23T11:19:36.466Z,3.60
2017-09-23T11:22:03.595Z,3.80
2017-09-23T11:24:29.871Z,4.40
2017-09-23T11:26:56.915Z,4.40
2017-09-23T11:29:23.348Z,3.70
2017-09-23T11:31:50.399Z,3.57
2017-09-23T11:34:16.719Z,3.97
2017-09-23T11:36:43.039Z,3.90
2017-09-23T11:39:10.062Z,3.60
2017-09-23T11:41:36.415Z,3.00
2017-09-23T11:44:02.781Z,3.57
2017-09-23T11:46:29.063Z,4.43
2017-09-23T11:48:56.125Z,4.00
2017-09-23T11:51:23.173Z,3.20
2017-09-23T11:53:51.230Z,5.13
2017-09-23T11:56:19.230Z,4.83
2017-09-23T11:58:46.276Z,3.37
2017-09-23T12:01:13.392Z,3.27
2017-09-23T12:03:40.470Z,3.07
2017-09-23T12:06:07.510Z,3.57
2017-09-23T12:08:34.595Z,3.70
2017-09-23T12:11:00.929Z,3.10
2017-09-23T12:13:27.244Z,3.40
2017-09-23T12:15:53.550Z,3.93
2017-09-23T12:18:20.617Z,3.87
2017-09-23T12:20:46.935Z,3.80
2017-09-23T12:23:13.269Z,3.60
2017-09-23T12:25:40.969Z,3.20
2017-09-23T12:28:08.264Z,4.57
2017-09-23T12:30:37.243Z,3.90
2017-09-23T12:33:03.539Z,4.37
2017-09-23T12:35:29.837Z,4.17
2017-09-23T12:37:56.134Z,2.87
2017-09-23T12:40:23.231Z,2.87
2017-09-23T12:42:49.587Z,4.67
2017-09-23T12:45:15.882Z,4.13
2017-09-23T12:47:42.173Z,4.07
2017-09-23T12:50:09.965Z,3.70
2017-09-23T12:52:37.018Z,2.87
2017-09-23T12:55:03.330Z,3.43
2017-09-23T12:57:30.399Z,2.90
2017-09-23T12:59:56.691Z,3.50
2017-09-23T13:02:23.038Z,3.20
2017-09-23T13:04:50.081Z,3.47
2017-09-23T13:07:17.382Z,3.87
2017-09-23T13:09:45.213Z,3.20
2017-09-23T13:12:11.527Z,3.33
2017-09-23T13:14:37.824Z,3.40
2017-09-23T13:17:04.161Z,3.80
2017-09-23T13:19:30.447Z,4.53
2017-09-23T13:21:56.726Z,4.30
2017-09-23T13:24:23.049Z,5.80
2017-09-23T13:26:49.354Z,5.93
2017-09-23T13:29:15.693Z,6.17
2017-09-23T13:31:42.014Z,5.10
2017-09-23T13:34:08.354Z,3.90
2017-09-23T13:36:34.653Z,4.93
2017-09-23T13:39:00.980Z,7.33
2017-09-23T13:41:27.389Z,6.57
2017-09-23T13:43:54.423Z,6.70
2017-09-23T13:46:21.486Z,6.20
2017-09-23T13:48:48.566Z,6.47
2017-09-23T13:51:14.957Z,7.00
2017-09-23T13:53:41.345Z,6.50
2017-09-23T13:56:08.201Z,6.73
2017-09-23T13:58:34.708Z,5.07
2017-09-23T14:01:01.019Z,4.90
2017-09-23T14:03:27.346Z,6.87
2017-09-23T14:05:54.400Z,7.00
2017-09-23T14:08:20.717Z,7.00
2017-09-23T14:10:47.773Z,6.73
2017-09-23T14:13:14.850Z,6.70
2017-09-23T14:15:41.229Z,6.77
2017-09-23T14:18:08.361Z,6.70
2017-09-23T14:20:34.772Z,6.00
2017-09-23T14:23:01.118Z,4.70
2017-09-23T14:25:27.457Z,3.80
2017-09-23T14:27:54.534Z,3.40
2017-09-23T14:30:20.902Z,3.70
2017-09-23T14:32:47.207Z,4.30
2017-09-23T14:35:13.550Z,5.17
2017-09-23T14:37:39.866Z,5.00
2017-09-23T14:40:06.215Z,5.77
2017-09-23T14:42:32.533Z,5.90
2017-09-23T14:44:58.858Z,5.07
2017-09-23T14:47:25.326Z,5.13
2017-09-23T14:49:52.469Z,5.40
2017-09-23T14:52:18.800Z,4.90
2017-09-23T14:54:45.119Z,4.30
2017-09-23T14:57:11.469Z,4.80
2017-09-23T14:59:37.786Z,4.77
2017-09-23T15:02:04.135Z,3.73
2017-09-23T15:04:30.429Z,3.70
2017-09-23T15:06:56.749Z,4.20
2017-09-23T15:09:24.044Z,4.00
2017-09-23T15:11:50.513Z,3.60
2017-09-23T15:14:16.935Z,3.73
2017-09-23T15:16:43.351Z,3.83
2017-09-23T15:19:10.464Z,3.57
2017-09-23T15:21:37.538Z,4.17
2017-09-23T15:24:03.859Z,4.60
2017-09-23T15:26:30.162Z,4.10
2017-09-23T15:28:56.598Z,4.20
2017-09-23T15:31:22.948Z,4.40
2017-09-23T15:33:49.272Z,4.80
2017-09-23T15:36:15.606Z,4.40
2017-09-23T15:38:41.971Z,4.73
2017-09-23T15:41:09.194Z,4.40
2017-09-23T15:43:35.582Z,4.93
2017-09-23T15:46:02.715Z,4.17
2017-09-23T15:48:29.796Z,3.87
2017-09-23T15:50:56.849Z,3.97
2017-09-23T15:53:23.190Z,4.53
2017-09-23T15:55:49.532Z,4.60
2017-09-23T15:58:16.593Z,4.50
2017-09-23T16:00:42.876Z,4.20
2017-09-23T16:03:09.216Z,5.30
2017-09-23T16:05:35.579Z,5.40
2017-09-23T16:08:01.939Z,5.03
2017-09-23T16:10:29.009Z,4.83
2017-09-23T16:12:55.315Z,5.97
2017-09-23T16:15:21.616Z,6.53
2017-09-23T16:17:47.917Z,8.50
2017-09-23T16:22:47.340Z,8.40
2017-09-23T16:25:13.654Z,8.60
2017-09-23T16:27:39.968Z,6.83
2017-09-23T16:30:08.751Z,7.77
2017-09-23T16:32:35.820Z,6.10
2017-09-23T16:35:02.879Z,7.40
2017-09-23T16:37:29.234Z,7.50
2017-09-23T16:39:55.574Z,6.80
2017-09-23T16:42:21.884Z,6.83
2017-09-23T16:44:48.210Z,7.20
2017-09-23T16:47:14.519Z,8.17
2017-09-23T16:49:40.842Z,9.20
2017-09-23T16:52:07.924Z,8.60
2017-09-23T16:54:34.230Z,9.13
2017-09-23T16:57:00.558Z,7.90
2017-09-23T16:59:27.590Z,7.57
2017-09-23T17:01:53.945Z,6.80
2017-09-23T17:04:20.297Z,7.93
2017-09-23T17:06:46.703Z,7.47
2017-09-23T17:09:13.299Z,6.70
2017-09-23T17:11:40.386Z,8.30
2017-09-23T17:14:06.707Z,9.37
2017-09-23T17:16:33.204Z,11.63
2017-09-23T17:19:00.420Z,14.07
2017-09-23T17:21:26.826Z,12.27
2017-09-23T17:23:53.871Z,11.43
2017-09-23T17:26:20.985Z,8.90
2017-09-23T17:28:47.295Z,10.70
2017-09-23T17:31:13.675Z,11.67
2017-09-23T17:33:41.597Z,14.30
2017-09-23T17:36:07.888Z,11.73
2017-09-23T17:38:34.202Z,12.87
2017-09-23T17:41:01.337Z,12.17
2017-09-23T17:43:28.414Z,10.07
2017-09-23T17:45:55.484Z,11.20
2017-09-23T17:48:21.817Z,12.97
2017-09-23T17:50:48.114Z,12.30
2017-09-23T17:53:14.439Z,19.23
2017-09-23T17:55:41.474Z,18.50
2017-09-23T17:58:07.766Z,20.43
2017-09-23T18:00:34.084Z,22.27
2017-09-23T18:03:00.402Z,21.80
2017-09-23T18:05:26.694Z,13.83
2017-09-23T18:07:54.107Z,20.57
2017-09-23T18:10:20.404Z,22.70
2017-09-23T18:12:46.748Z,22.77
2017-09-23T18:15:13.076Z,21.30
2017-09-23T18:17:39.405Z,19.40
2017-09-23T18:20:05.713Z,18.30
2017-09-23T18:22:32.025Z,20.80
2017-09-23T18:24:59.867Z,19.73
2017-09-23T18:27:26.175Z,20.57
2017-09-23T18:29:52.494Z,20.73
2017-09-23T18:32:19.741Z,23.17
2017-09-23T18:34:46.057Z,18.60
2017-09-23T18:37:13.890Z,20.00
2017-09-23T18:39:40.169Z,17.67
2017-09-23T18:42:06.445Z,16.70
2017-09-23T18:44:32.734Z,16.80
2017-09-23T18:46:59.006Z,15.30
2017-09-23T18:49:25.317Z,15.53
2017-09-23T18:51:51.606Z,17.13
2017-09-23T18:54:18.784Z,19.00
2017-09-23T18:56:45.080Z,15.30
2017-09-23T18:59:11.419Z,18.27
2017-09-23T19:01:37.843Z,14.70
2017-09-23T19:04:04.300Z,14.40
2017-09-23T19:06:30.658Z,13.93
2017-09-23T19:08:57.155Z,15.17
2017-09-23T19:11:23.493Z,14.43
2017-09-23T19:13:49.884Z,14.90
2017-09-23T19:16:18.503Z,14.10
2017-09-23T19:18:44.822Z,13.47
2017-09-23T19:21:11.139Z,14.57
2017-09-23T19:23:38.190Z,13.37
2017-09-23T19:26:04.522Z,12.90
2017-09-23T19:28:31.563Z,13.97
2017-09-23T19:30:58.610Z,13.20
2017-09-23T19:33:25.646Z,15.13
2017-09-23T19:35:52.729Z,13.97
2017-09-23T19:38:20.736Z,15.33
2017-09-23T19:40:47.039Z,14.83
2017-09-23T19:43:13.338Z,12.93
2017-09-23T19:45:40.377Z,13.50
2017-09-23T19:48:07.538Z,12.13
2017-09-23T19:50:33.854Z,11.80
2017-09-23T19:53:00.916Z,11.13
2017-09-23T19:55:27.290Z,11.73
2017-09-23T19:57:53.699Z,11.40
2017-09-23T20:00:20.109Z,10.90
2017-09-23T20:02:46.553Z,11.10
2017-09-23T20:05:12.926Z,10.30
2017-09-23T20:07:40.016Z,9.87
2017-09-23T20:10:06.621Z,12.63
2017-09-23T20:12:33.166Z,11.73
2017-09-23T20:14:59.536Z,11.83
2017-09-23T20:17:27.264Z,11.67
2017-09-23T20:19:54.790Z,14.13
2017-09-23T20:22:21.786Z,12.20
2017-09-23T20:24:48.165Z,10.67
2017-09-23T20:27:14.626Z,11.20
2017-09-23T20:29:40.966Z,11.23
2017-09-23T20:32:07.995Z,11.53
2017-09-23T20:34:35.923Z,11.00
2017-09-23T20:37:03.197Z,10.47
2017-09-23T20:39:29.497Z,11.83
2017-09-23T20:41:56.564Z,14.60
2017-09-23T20:44:22.866Z,13.50
2017-09-23T20:46:49.883Z,12.60
2017-09-23T20:49:16.172Z,15.50
2017-09-23T20:51:42.467Z,13.17
2017-09-23T20:54:09.638Z,12.50
2017-09-23T20:56:36.589Z,13.53
2017-09-23T20:59:03.050Z,14.60
2017-09-23T21:01:30.142Z,14.60
2017-09-23T21:03:56.475Z,13.87
2017-09-23T21:06:23.503Z,12.53
2017-09-23T21:08:50.621Z,12.40
2017-09-23T21:11:17.121Z,12.43
2017-09-23T21:13:43.481Z,11.30
2017-09-23T21:16:09.834Z,12.20
2017-09-23T21:18:36.992Z,13.70
2017-09-23T21:21:03.310Z,14.27
2017-09-23T21:23:29.616Z,15.37
2017-09-23T21:25:55.919Z,15.53
2017-09-23T21:28:22.209Z,12.93
2017-09-23T21:30:49.246Z,14.07
2017-09-23T21:33:17.022Z,14.40
2017-09-23T21:35:44.086Z,13.43
2017-09-23T21:38:11.102Z,15.63
2017-09-23T21:40:37.406Z,19.37
2017-09-23T21:43:03.689Z,16.17
2017-09-23T21:45:30.740Z,16.13
2017-09-23T21:47:57.031Z,15.80
2017-09-23T21:50:24.836Z,16.53
2017-09-23T21:52:51.862Z,15.83
2017-09-23T21:55:18.165Z,17.10
2017-09-23T21:57:44.433Z,16.93
2017-09-23T22:00:10.778Z,16.13
2017-09-23T22:02:37.095Z,15.73
2017-09-23T22:05:04.174Z,16.90
2017-09-23T22:07:30.488Z,17.33
2017-09-23T22:09:57.516Z,16.90
2017-09-23T22:12:24.582Z,17.13
2017-09-23T22:14:51.618Z,18.43
2017-09-23T22:17:18.665Z,18.83
2017-09-23T22:19:45.687Z,19.03
2017-09-23T22:22:11.971Z,19.70
2017-09-23T22:24:38.236Z,19.60
2017-09-23T22:27:04.567Z,18.63
2017-09-23T22:29:30.857Z,19.80
2017-09-23T22:31:57.165Z,19.83
2017-09-23T22:34:24.189Z,19.07
2017-09-23T22:36:50.480Z,19.43
2017-09-23T22:39:16.746Z,18.40
2017-09-23T22:41:43.991Z,19.67
2017-09-23T22:44:10.279Z,18.57
2017-09-23T22:46:38.217Z,19.00
2017-09-23T22:49:05.274Z,20.47
2017-09-23T22:51:31.558Z,21.20
2017-09-23T22:53:57.851Z,20.13
2017-09-23T22:56:24.138Z,19.67
2017-09-23T22:58:50.421Z,19.47
2017-09-23T23:01:16.782Z,20.27
2017-09-23T23:03:43.196Z,19.77
2017-09-23T23:06:09.485Z,19.30
2017-09-23T23:08:35.785Z,20.50
2017-09-23T23:11:02.854Z,18.73
2017-09-23T23:13:29.154Z,21.30
2017-09-23T23:15:56.202Z,22.30
2017-09-23T23:18:22.497Z,21.97
2017-09-23T23:20:48.782Z,20.37
2017-09-23T23:23:15.813Z,19.17
2017-09-23T23:25:42.088Z,18.20
2017-09-23T23:28:08.399Z,18.30
2017-09-23T23:30:34.705Z,18.37
2017-09-23T23:33:01.762Z,18.87
2017-09-23T23:35:28.796Z,18.60
2017-09-23T23:37:55.114Z,19.60
2017-09-23T23:40:21.421Z,18.30
2017-09-23T23:42:47.700Z,19.87
2017-09-23T23:45:14.749Z,19.33
2017-09-23T23:47:41.772Z,21.67
2017-09-23T23:50:08.815Z,20.87
2017-09-23T23:52:35.088Z,20.43
2017-09-23T23:55:01.374Z,22.50
2017-09-23T23:57:27.672Z,23.60
2017-09-23T23:59:53.966Z,21.87
